sensor_id;sensor_type;location;lat;lon;timestamp;P1;durP1;ratioP1;P2;durP2;ratioP2
18102;SDS011;9178;51.120;6.192;2023-05-29T00:02:11;6.00;;;3.00;;
18102;SDS011;9178;51.120;6.192;2023-05-29T00:04:39;3.87;;;2.80;;
18102;SDS011;9178;51.120;6.192;2023-05-29T00:07:05;7.47;;;3.10;;
18102;SDS011;9178;51.120;6.192;2023-05-29T00:09:37;4.50;;;2.70;;
18102;SDS011;9178;51.120;6.192;2023-05-29T00:12:04;7.93;;;2.83;;
18102;SDS011;9178;51.120;6.192;2023-05-29T00:14:33;3.53;;;2.53;;
18102;SDS011;9178;51.120;6.192;2023-05-29T00:17:00;7.40;;;3.17;;
18102;SDS011;9178;51.120;6.192;2023-05-29T00:19:28;4.40;;;2.67;;
18102;SDS011;9178;51.120;6.192;2023-05-29T00:21:56;5.27;;;2.63;;
18102;SDS011;9178;51.120;6.192;2023-05-29T00:24:26;3.93;;;2.53;;
18102;SDS011;9178;51.120;6.192;2023-05-29T00:26:54;4.53;;;2.50;;
18102;SDS011;9178;51.120;6.192;2023-05-29T00:29:24;3.70;;;2.80;;
18102;SDS011;9178;51.120;6.192;2023-05-29T00:31:52;4.20;;;2.50;;
18102;SDS011;9178;51.120;6.192;2023-05-29T00:34:19;5.90;;;3.37;;
18102;SDS011;9178;51.120;6.192;2023-05-29T00:36:49;5.50;;;2.80;;
18102;SDS011;9178;51.120;6.192;2023-05-29T00:39:17;4.37;;;2.67;;
18102;SDS011;9178;51.120;6.192;2023-05-29T00:41:44;5.97;;;2.83;;
18102;SDS011;9178;51.120;6.192;2023-05-29T00:44:20;5.57;;;3.00;;
18102;SDS011;9178;51.120;6.192;2023-05-29T00:46:48;9.20;;;2.70;;
18102;SDS011;9178;51.120;6.192;2023-05-29T00:49:18;5.00;;;3.17;;
18102;SDS011;9178;51.120;6.192;2023-05-29T00:51:46;4.80;;;2.90;;
18102;SDS011;9178;51.120;6.192;2023-05-29T00:54:17;5.00;;;3.00;;
18102;SDS011;9178;51.120;6.192;2023-05-29T00:56:51;5.90;;;2.97;;
18102;SDS011;9178;51.120;6.192;2023-05-29T00:59:19;5.43;;;3.00;;
18102;SDS011;9178;51.120;6.192;2023-05-29T01:01:48;4.87;;;3.20;;
18102;SDS011;9178;51.120;6.192;2023-05-29T01:04:16;3.60;;;2.87;;
18102;SDS011;9178;51.120;6.192;2023-05-29T01:06:44;6.43;;;2.93;;
18102;SDS011;9178;51.120;6.192;2023-05-29T01:09:11;3.40;;;2.90;;
18102;SDS011;9178;51.120;6.192;2023-05-29T01:11:44;6.50;;;3.90;;
18102;SDS011;9178;51.120;6.192;2023-05-29T01:14:17;5.80;;;3.43;;
18102;SDS011;9178;51.120;6.192;2023-05-29T01:17:04;6.83;;;3.13;;
18102;SDS011;9178;51.120;6.192;2023-05-29T01:19:46;6.27;;;3.40;;
18102;SDS011;9178;51.120;6.192;2023-05-29T01:22:35;4.33;;;3.23;;
18102;SDS011;9178;51.120;6.192;2023-05-29T01:25:17;6.77;;;3.37;;
18102;SDS011;9178;51.120;6.192;2023-05-29T01:27:51;4.67;;;3.27;;
18102;SDS011;9178;51.120;6.192;2023-05-29T01:30:20;4.27;;;3.20;;
18102;SDS011;9178;51.120;6.192;2023-05-29T01:32:50;5.50;;;3.30;;
18102;SDS011;9178;51.120;6.192;2023-05-29T01:35:18;6.67;;;4.00;;
18102;SDS011;9178;51.120;6.192;2023-05-29T01:37:45;5.40;;;3.60;;
18102;SDS011;9178;51.120;6.192;2023-05-29T01:40:13;6.60;;;3.80;;
18102;SDS011;9178;51.120;6.192;2023-05-29T01:42:40;5.30;;;4.10;;
18102;SDS011;9178;51.120;6.192;2023-05-29T01:45:12;8.10;;;4.07;;
18102;SDS011;9178;51.120;6.192;2023-05-29T01:47:43;5.70;;;4.13;;
18102;SDS011;9178;51.120;6.192;2023-05-29T01:50:11;7.57;;;4.43;;
18102;SDS011;9178;51.120;6.192;2023-05-29T01:52:43;4.87;;;3.97;;
18102;SDS011;9178;51.120;6.192;2023-05-29T01:55:11;9.30;;;4.30;;
18102;SDS011;9178;51.120;6.192;2023-05-29T01:57:40;8.80;;;4.10;;
18102;SDS011;9178;51.120;6.192;2023-05-29T02:00:12;5.30;;;4.10;;
18102;SDS011;9178;51.120;6.192;2023-05-29T02:02:42;5.90;;;4.13;;
18102;SDS011;9178;51.120;6.192;2023-05-29T02:05:09;9.50;;;5.77;;
18102;SDS011;9178;51.120;6.192;2023-05-29T02:07:36;7.47;;;4.40;;
18102;SDS011;9178;51.120;6.192;2023-05-29T02:10:03;7.37;;;4.50;;
18102;SDS011;9178;51.120;6.192;2023-05-29T02:12:33;8.30;;;4.40;;
18102;SDS011;9178;51.120;6.192;2023-05-29T02:15:00;9.90;;;4.17;;
18102;SDS011;9178;51.120;6.192;2023-05-29T02:17:29;8.90;;;4.30;;
18102;SDS011;9178;51.120;6.192;2023-05-29T02:19:57;9.33;;;4.37;;
18102;SDS011;9178;51.120;6.192;2023-05-29T02:22:24;7.00;;;4.60;;
18102;SDS011;9178;51.120;6.192;2023-05-29T02:24:52;8.97;;;4.33;;
18102;SDS011;9178;51.120;6.192;2023-05-29T02:27:20;8.40;;;4.60;;
18102;SDS011;9178;51.120;6.192;2023-05-29T02:29:47;6.87;;;3.93;;
18102;SDS011;9178;51.120;6.192;2023-05-29T02:32:14;6.50;;;3.63;;
18102;SDS011;9178;51.120;6.192;2023-05-29T02:34:43;9.37;;;4.17;;
18102;SDS011;9178;51.120;6.192;2023-05-29T02:37:10;10.07;;;4.03;;
18102;SDS011;9178;51.120;6.192;2023-05-29T02:39:37;7.70;;;4.27;;
18102;SDS011;9178;51.120;6.192;2023-05-29T02:42:05;10.57;;;4.47;;
18102;SDS011;9178;51.120;6.192;2023-05-29T02:44:33;5.43;;;3.27;;
18102;SDS011;9178;51.120;6.192;2023-05-29T02:47:00;11.43;;;4.83;;
18102;SDS011;9178;51.120;6.192;2023-05-29T02:49:31;9.53;;;3.70;;
18102;SDS011;9178;51.120;6.192;2023-05-29T02:51:59;8.40;;;3.73;;
18102;SDS011;9178;51.120;6.192;2023-05-29T02:54:35;11.97;;;3.67;;
18102;SDS011;9178;51.120;6.192;2023-05-29T02:57:03;8.17;;;3.60;;
18102;SDS011;9178;51.120;6.192;2023-05-29T02:59:30;8.23;;;3.87;;
18102;SDS011;9178;51.120;6.192;2023-05-29T03:02:01;7.50;;;3.20;;
18102;SDS011;9178;51.120;6.192;2023-05-29T03:04:28;6.43;;;3.60;;
18102;SDS011;9178;51.120;6.192;2023-05-29T03:06:59;6.87;;;3.20;;
18102;SDS011;9178;51.120;6.192;2023-05-29T03:09:26;7.83;;;3.30;;
18102;SDS011;9178;51.120;6.192;2023-05-29T03:11:54;10.10;;;3.27;;
18102;SDS011;9178;51.120;6.192;2023-05-29T03:14:20;6.90;;;2.97;;
18102;SDS011;9178;51.120;6.192;2023-05-29T03:16:50;8.83;;;3.00;;
18102;SDS011;9178;51.120;6.192;2023-05-29T03:19:20;8.33;;;3.20;;
18102;SDS011;9178;51.120;6.192;2023-05-29T03:21:49;9.57;;;3.60;;
18102;SDS011;9178;51.120;6.192;2023-05-29T03:24:26;8.63;;;2.80;;
18102;SDS011;9178;51.120;6.192;2023-05-29T03:26:53;8.83;;;3.07;;
18102;SDS011;9178;51.120;6.192;2023-05-29T03:29:23;8.00;;;2.73;;
18102;SDS011;9178;51.120;6.192;2023-05-29T03:31:50;9.77;;;2.90;;
18102;SDS011;9178;51.120;6.192;2023-05-29T03:34:18;9.73;;;3.30;;
18102;SDS011;9178;51.120;6.192;2023-05-29T03:36:46;6.37;;;2.53;;
18102;SDS011;9178;51.120;6.192;2023-05-29T03:39:16;5.63;;;2.77;;
18102;SDS011;9178;51.120;6.192;2023-05-29T03:41:48;7.80;;;2.63;;
18102;SDS011;9178;51.120;6.192;2023-05-29T03:44:16;12.10;;;2.90;;
18102;SDS011;9178;51.120;6.192;2023-05-29T03:46:50;7.43;;;2.73;;
18102;SDS011;9178;51.120;6.192;2023-05-29T03:49:20;8.43;;;2.90;;
18102;SDS011;9178;51.120;6.192;2023-05-29T03:51:50;8.07;;;2.90;;
18102;SDS011;9178;51.120;6.192;2023-05-29T03:54:17;9.00;;;2.70;;
18102;SDS011;9178;51.120;6.192;2023-05-29T03:56:51;9.60;;;2.73;;
18102;SDS011;9178;51.120;6.192;2023-05-29T03:59:23;9.83;;;3.30;;
18102;SDS011;9178;51.120;6.192;2023-05-29T04:01:53;6.67;;;2.80;;
18102;SDS011;9178;51.120;6.192;2023-05-29T04:04:20;8.93;;;2.57;;
18102;SDS011;9178;51.120;6.192;2023-05-29T04:06:49;9.23;;;3.30;;
18102;SDS011;9178;51.120;6.192;2023-05-29T04:09:16;7.67;;;2.50;;
18102;SDS011;9178;51.120;6.192;2023-05-29T04:14:47;10.10;;;3.00;;
18102;SDS011;9178;51.120;6.192;2023-05-29T04:17:15;7.83;;;2.30;;
18102;SDS011;9178;51.120;6.192;2023-05-29T04:19:42;12.43;;;3.20;;
18102;SDS011;9178;51.120;6.192;2023-05-29T04:22:19;9.83;;;2.70;;
18102;SDS011;9178;51.120;6.192;2023-05-29T04:24:47;9.53;;;3.37;;
18102;SDS011;9178;51.120;6.192;2023-05-29T04:27:16;8.50;;;2.40;;
18102;SDS011;9178;51.120;6.192;2023-05-29T04:29:43;12.53;;;3.13;;
18102;SDS011;9178;51.120;6.192;2023-05-29T04:32:13;10.60;;;2.80;;
18102;SDS011;9178;51.120;6.192;2023-05-29T04:34:40;15.10;;;2.70;;
18102;SDS011;9178;51.120;6.192;2023-05-29T04:37:09;8.43;;;2.93;;
18102;SDS011;9178;51.120;6.192;2023-05-29T04:42:34;11.73;;;2.77;;
18102;SDS011;9178;51.120;6.192;2023-05-29T04:45:01;11.83;;;3.07;;
18102;SDS011;9178;51.120;6.192;2023-05-29T04:47:33;10.20;;;2.97;;
18102;SDS011;9178;51.120;6.192;2023-05-29T04:50:03;11.87;;;3.40;;
18102;SDS011;9178;51.120;6.192;2023-05-29T04:52:30;12.30;;;3.63;;
18102;SDS011;9178;51.120;6.192;2023-05-29T04:54:57;9.93;;;3.17;;
18102;SDS011;9178;51.120;6.192;2023-05-29T04:57:25;12.83;;;3.10;;
18102;SDS011;9178;51.120;6.192;2023-05-29T04:59:56;10.70;;;3.23;;
18102;SDS011;9178;51.120;6.192;2023-05-29T05:02:23;12.80;;;2.90;;
18102;SDS011;9178;51.120;6.192;2023-05-29T05:04:54;8.70;;;3.03;;
18102;SDS011;9178;51.120;6.192;2023-05-29T05:07:21;11.50;;;3.10;;
18102;SDS011;9178;51.120;6.192;2023-05-29T05:10:01;13.63;;;3.30;;
18102;SDS011;9178;51.120;6.192;2023-05-29T05:12:28;11.07;;;3.00;;
18102;SDS011;9178;51.120;6.192;2023-05-29T05:14:59;16.80;;;3.90;;
18102;SDS011;9178;51.120;6.192;2023-05-29T05:17:26;12.37;;;3.80;;
18102;SDS011;9178;51.120;6.192;2023-05-29T05:19:55;11.50;;;3.10;;
18102;SDS011;9178;51.120;6.192;2023-05-29T05:22:22;12.57;;;3.30;;
18102;SDS011;9178;51.120;6.192;2023-05-29T05:24:49;14.00;;;3.00;;
18102;SDS011;9178;51.120;6.192;2023-05-29T05:27:19;13.43;;;3.43;;
18102;SDS011;9178;51.120;6.192;2023-05-29T05:29:47;10.90;;;3.37;;
18102;SDS011;9178;51.120;6.192;2023-05-29T05:32:16;11.07;;;3.63;;
18102;SDS011;9178;51.120;6.192;2023-05-29T05:34:43;8.17;;;2.97;;
18102;SDS011;9178;51.120;6.192;2023-05-29T05:37:12;13.70;;;3.13;;
18102;SDS011;9178;51.120;6.192;2023-05-29T05:39:44;10.43;;;3.53;;
18102;SDS011;9178;51.120;6.192;2023-05-29T05:42:11;14.53;;;3.47;;
18102;SDS011;9178;51.120;6.192;2023-05-29T05:44:38;10.63;;;2.67;;
18102;SDS011;9178;51.120;6.192;2023-05-29T05:47:08;10.47;;;3.00;;
18102;SDS011;9178;51.120;6.192;2023-05-29T05:49:37;11.77;;;2.70;;
18102;SDS011;9178;51.120;6.192;2023-05-29T05:52:04;10.77;;;3.00;;
18102;SDS011;9178;51.120;6.192;2023-05-29T05:54:36;12.53;;;3.47;;
18102;SDS011;9178;51.120;6.192;2023-05-29T05:57:09;15.93;;;3.53;;
18102;SDS011;9178;51.120;6.192;2023-05-29T05:59:39;10.00;;;3.13;;
18102;SDS011;9178;51.120;6.192;2023-05-29T06:02:06;11.40;;;4.27;;
18102;SDS011;9178;51.120;6.192;2023-05-29T06:04:33;10.27;;;2.80;;
18102;SDS011;9178;51.120;6.192;2023-05-29T06:07:02;11.50;;;3.07;;
18102;SDS011;9178;51.120;6.192;2023-05-29T06:09:29;10.53;;;3.23;;
18102;SDS011;9178;51.120;6.192;2023-05-29T06:12:02;9.87;;;2.97;;
18102;SDS011;9178;51.120;6.192;2023-05-29T06:14:33;11.77;;;3.20;;
18102;SDS011;9178;51.120;6.192;2023-05-29T06:17:02;10.50;;;3.43;;
18102;SDS011;9178;51.120;6.192;2023-05-29T06:19:29;14.47;;;3.93;;
18102;SDS011;9178;51.120;6.192;2023-05-29T06:21:57;14.20;;;3.40;;
18102;SDS011;9178;51.120;6.192;2023-05-29T06:24:28;14.60;;;3.40;;
18102;SDS011;9178;51.120;6.192;2023-05-29T06:27:03;14.23;;;3.10;;
18102;SDS011;9178;51.120;6.192;2023-05-29T06:29:31;10.77;;;3.27;;
18102;SDS011;9178;51.120;6.192;2023-05-29T06:32:01;9.63;;;3.20;;
18102;SDS011;9178;51.120;6.192;2023-05-29T06:34:33;12.53;;;3.90;;
18102;SDS011;9178;51.120;6.192;2023-05-29T06:37:00;11.60;;;3.00;;
18102;SDS011;9178;51.120;6.192;2023-05-29T06:39:29;9.53;;;2.77;;
18102;SDS011;9178;51.120;6.192;2023-05-29T06:42:02;11.70;;;3.27;;
18102;SDS011;9178;51.120;6.192;2023-05-29T06:44:29;10.60;;;3.37;;
18102;SDS011;9178;51.120;6.192;2023-05-29T06:46:56;13.57;;;2.97;;
18102;SDS011;9178;51.120;6.192;2023-05-29T06:49:26;10.63;;;3.10;;
18102;SDS011;9178;51.120;6.192;2023-05-29T06:51:56;11.90;;;3.00;;
18102;SDS011;9178;51.120;6.192;2023-05-29T06:54:25;10.30;;;3.53;;
18102;SDS011;9178;51.120;6.192;2023-05-29T06:57:02;10.63;;;3.17;;
18102;SDS011;9178;51.120;6.192;2023-05-29T06:59:32;8.67;;;3.03;;
18102;SDS011;9178;51.120;6.192;2023-05-29T07:02:00;14.30;;;3.30;;
18102;SDS011;9178;51.120;6.192;2023-05-29T07:04:27;13.47;;;3.00;;
18102;SDS011;9178;51.120;6.192;2023-05-29T07:06:56;12.90;;;3.30;;
18102;SDS011;9178;51.120;6.192;2023-05-29T07:09:23;10.10;;;3.47;;
18102;SDS011;9178;51.120;6.192;2023-05-29T07:11:50;8.97;;;3.27;;
18102;SDS011;9178;51.120;6.192;2023-05-29T07:14:19;10.17;;;2.80;;
18102;SDS011;9178;51.120;6.192;2023-05-29T07:16:49;13.40;;;3.37;;
18102;SDS011;9178;51.120;6.192;2023-05-29T07:19:19;13.87;;;3.20;;
18102;SDS011;9178;51.120;6.192;2023-05-29T07:21:46;10.30;;;2.90;;
18102;SDS011;9178;51.120;6.192;2023-05-29T07:24:13;9.40;;;3.10;;
18102;SDS011;9178;51.120;6.192;2023-05-29T07:26:40;10.40;;;2.97;;
18102;SDS011;9178;51.120;6.192;2023-05-29T07:29:12;9.93;;;3.03;;
18102;SDS011;9178;51.120;6.192;2023-05-29T07:31:43;8.88;;;3.20;;
18102;SDS011;9178;51.120;6.192;2023-05-29T07:34:10;7.18;;;2.75;;
18102;SDS011;9178;51.120;6.192;2023-05-29T07:36:37;8.20;;;2.70;;
18102;SDS011;9178;51.120;6.192;2023-05-29T07:39:22;8.80;;;3.10;;
18102;SDS011;9178;51.120;6.192;2023-05-29T07:41:49;12.20;;;3.25;;
18102;SDS011;9178;51.120;6.192;2023-05-29T07:44:18;12.20;;;3.70;;
18102;SDS011;9178;51.120;6.192;2023-05-29T07:46:47;9.55;;;3.13;;
18102;SDS011;9178;51.120;6.192;2023-05-29T07:49:14;9.95;;;3.30;;
18102;SDS011;9178;51.120;6.192;2023-05-29T07:51:41;13.10;;;3.08;;
18102;SDS011;9178;51.120;6.192;2023-05-29T07:54:08;20.00;;;3.53;;
18102;SDS011;9178;51.120;6.192;2023-05-29T07:56:35;6.18;;;2.40;;
18102;SDS011;9178;51.120;6.192;2023-05-29T07:59:03;10.75;;;3.30;;
18102;SDS011;9178;51.120;6.192;2023-05-29T08:01:30;11.63;;;2.85;;
18102;SDS011;9178;51.120;6.192;2023-05-29T08:03:58;9.57;;;3.03;;
18102;SDS011;9178;51.120;6.192;2023-05-29T08:06:28;9.65;;;2.70;;
18102;SDS011;9178;51.120;6.192;2023-05-29T08:08:57;9.30;;;2.50;;
18102;SDS011;9178;51.120;6.192;2023-05-29T08:11:24;12.98;;;3.08;;
18102;SDS011;9178;51.120;6.192;2023-05-29T08:13:51;7.10;;;2.65;;
18102;SDS011;9178;51.120;6.192;2023-05-29T08:16:21;6.75;;;2.40;;
18102;SDS011;9178;51.120;6.192;2023-05-29T08:18:59;10.60;;;3.00;;
18102;SDS011;9178;51.120;6.192;2023-05-29T08:21:26;7.15;;;2.70;;
18102;SDS011;9178;51.120;6.192;2023-05-29T08:23:52;10.55;;;2.65;;
18102;SDS011;9178;51.120;6.192;2023-05-29T08:26:19;11.45;;;3.28;;
18102;SDS011;9178;51.120;6.192;2023-05-29T08:28:46;7.30;;;2.63;;
18102;SDS011;9178;51.120;6.192;2023-05-29T08:31:13;9.93;;;2.30;;
18102;SDS011;9178;51.120;6.192;2023-05-29T08:33:40;7.70;;;2.40;;
18102;SDS011;9178;51.120;6.192;2023-05-29T08:36:09;13.98;;;3.20;;
18102;SDS011;9178;51.120;6.192;2023-05-29T08:38:36;9.95;;;2.92;;
18102;SDS011;9178;51.120;6.192;2023-05-29T08:41:03;11.00;;;3.33;;
18102;SDS011;9178;51.120;6.192;2023-05-29T08:43:33;9.38;;;2.90;;
18102;SDS011;9178;51.120;6.192;2023-05-29T08:46:02;9.80;;;2.55;;
18102;SDS011;9178;51.120;6.192;2023-05-29T08:48:30;6.72;;;2.33;;
18102;SDS011;9178;51.120;6.192;2023-05-29T08:50:57;8.90;;;2.30;;
18102;SDS011;9178;51.120;6.192;2023-05-29T08:53:28;6.82;;;2.35;;
18102;SDS011;9178;51.120;6.192;2023-05-29T08:55:58;7.88;;;2.90;;
18102;SDS011;9178;51.120;6.192;2023-05-29T08:58:27;10.20;;;3.13;;
18102;SDS011;9178;51.120;6.192;2023-05-29T09:00:55;9.23;;;2.95;;
18102;SDS011;9178;51.120;6.192;2023-05-29T09:03:22;8.52;;;3.25;;
18102;SDS011;9178;51.120;6.192;2023-05-29T09:05:49;9.27;;;2.65;;
18102;SDS011;9178;51.120;6.192;2023-05-29T09:08:18;11.10;;;2.72;;
18102;SDS011;9178;51.120;6.192;2023-05-29T09:10:47;9.30;;;3.03;;
18102;SDS011;9178;51.120;6.192;2023-05-29T09:13:15;10.65;;;2.83;;
18102;SDS011;9178;51.120;6.192;2023-05-29T09:15:42;8.68;;;2.55;;
18102;SDS011;9178;51.120;6.192;2023-05-29T09:18:09;9.70;;;2.90;;
18102;SDS011;9178;51.120;6.192;2023-05-29T09:20:36;9.20;;;3.05;;
18102;SDS011;9178;51.120;6.192;2023-05-29T09:23:07;7.82;;;2.33;;
18102;SDS011;9178;51.120;6.192;2023-05-29T09:25:35;10.75;;;2.90;;
18102;SDS011;9178;51.120;6.192;2023-05-29T09:28:11;10.10;;;3.17;;
18102;SDS011;9178;51.120;6.192;2023-05-29T09:30:39;7.75;;;2.67;;
18102;SDS011;9178;51.120;6.192;2023-05-29T09:33:08;11.38;;;2.97;;
18102;SDS011;9178;51.120;6.192;2023-05-29T09:35:40;9.43;;;2.83;;
18102;SDS011;9178;51.120;6.192;2023-05-29T09:38:09;8.10;;;2.70;;
18102;SDS011;9178;51.120;6.192;2023-05-29T09:40:37;10.55;;;2.90;;
18102;SDS011;9178;51.120;6.192;2023-05-29T09:43:09;10.50;;;3.00;;
18102;SDS011;9178;51.120;6.192;2023-05-29T09:45:41;9.48;;;2.75;;
18102;SDS011;9178;51.120;6.192;2023-05-29T09:48:12;11.15;;;2.65;;
18102;SDS011;9178;51.120;6.192;2023-05-29T09:50:47;10.20;;;2.70;;
18102;SDS011;9178;51.120;6.192;2023-05-29T09:53:17;8.02;;;2.40;;
18102;SDS011;9178;51.120;6.192;2023-05-29T09:55:47;7.03;;;2.55;;
18102;SDS011;9178;51.120;6.192;2023-05-29T09:58:18;8.95;;;2.65;;
18102;SDS011;9178;51.120;6.192;2023-05-29T10:00:48;9.32;;;2.53;;
18102;SDS011;9178;51.120;6.192;2023-05-29T10:03:17;7.82;;;2.78;;
18102;SDS011;9178;51.120;6.192;2023-05-29T10:05:47;7.95;;;2.45;;
18102;SDS011;9178;51.120;6.192;2023-05-29T10:08:17;11.57;;;2.83;;
18102;SDS011;9178;51.120;6.192;2023-05-29T10:10:49;7.90;;;2.22;;
18102;SDS011;9178;51.120;6.192;2023-05-29T10:13:22;6.53;;;2.30;;
18102;SDS011;9178;51.120;6.192;2023-05-29T10:15:53;6.43;;;2.60;;
18102;SDS011;9178;51.120;6.192;2023-05-29T10:18:26;6.25;;;2.25;;
18102;SDS011;9178;51.120;6.192;2023-05-29T10:20:58;5.82;;;2.58;;
18102;SDS011;9178;51.120;6.192;2023-05-29T10:23:28;9.27;;;2.60;;
18102;SDS011;9178;51.120;6.192;2023-05-29T10:26:02;7.65;;;2.33;;
18102;SDS011;9178;51.120;6.192;2023-05-29T10:28:33;9.25;;;2.78;;
18102;SDS011;9178;51.120;6.192;2023-05-29T10:31:05;7.18;;;3.00;;
18102;SDS011;9178;51.120;6.192;2023-05-29T10:33:41;7.07;;;2.10;;
18102;SDS011;9178;51.120;6.192;2023-05-29T10:36:19;8.80;;;2.60;;
18102;SDS011;9178;51.120;6.192;2023-05-29T10:38:51;7.47;;;2.58;;
18102;SDS011;9178;51.120;6.192;2023-05-29T10:41:28;9.45;;;2.78;;
18102;SDS011;9178;51.120;6.192;2023-05-29T10:43:59;7.97;;;2.53;;
18102;SDS011;9178;51.120;6.192;2023-05-29T10:49:34;6.30;;;2.30;;
18102;SDS011;9178;51.120;6.192;2023-05-29T10:52:01;7.40;;;2.80;;
18102;SDS011;9178;51.120;6.192;2023-05-29T10:54:40;9.10;;;2.67;;
18102;SDS011;9178;51.120;6.192;2023-05-29T10:57:17;7.40;;;2.40;;
18102;SDS011;9178;51.120;6.192;2023-05-29T10:59:46;8.20;;;2.35;;
18102;SDS011;9178;51.120;6.192;2023-05-29T11:02:18;8.88;;;3.53;;
18102;SDS011;9178;51.120;6.192;2023-05-29T11:07:35;5.57;;;2.28;;
18102;SDS011;9178;51.120;6.192;2023-05-29T11:13:09;6.30;;;2.33;;
18102;SDS011;9178;51.120;6.192;2023-05-29T11:15:40;5.50;;;2.50;;
18102;SDS011;9178;51.120;6.192;2023-05-29T11:18:08;7.40;;;2.53;;
18102;SDS011;9178;51.120;6.192;2023-05-29T11:20:43;6.57;;;2.25;;
18102;SDS011;9178;51.120;6.192;2023-05-29T11:23:20;5.85;;;2.35;;
18102;SDS011;9178;51.120;6.192;2023-05-29T11:25:54;6.50;;;2.38;;
18102;SDS011;9178;51.120;6.192;2023-05-29T11:28:21;5.47;;;2.22;;
18102;SDS011;9178;51.120;6.192;2023-05-29T11:30:51;12.40;;;2.88;;
18102;SDS011;9178;51.120;6.192;2023-05-29T11:33:26;8.18;;;2.38;;
18102;SDS011;9178;51.120;6.192;2023-05-29T11:35:57;6.45;;;2.10;;
18102;SDS011;9178;51.120;6.192;2023-05-29T11:38:25;7.38;;;2.60;;
18102;SDS011;9178;51.120;6.192;2023-05-29T11:40:55;7.78;;;2.58;;
18102;SDS011;9178;51.120;6.192;2023-05-29T11:43:23;8.80;;;2.60;;
18102;SDS011;9178;51.120;6.192;2023-05-29T11:45:51;7.07;;;2.35;;
18102;SDS011;9178;51.120;6.192;2023-05-29T11:48:18;7.50;;;2.42;;
18102;SDS011;9178;51.120;6.192;2023-05-29T11:50:46;6.13;;;2.30;;
18102;SDS011;9178;51.120;6.192;2023-05-29T11:53:13;9.43;;;2.65;;
18102;SDS011;9178;51.120;6.192;2023-05-29T11:55:42;4.05;;;2.08;;
18102;SDS011;9178;51.120;6.192;2023-05-29T11:58:10;7.32;;;2.25;;
18102;SDS011;9178;51.120;6.192;2023-05-29T12:00:38;7.82;;;2.50;;
18102;SDS011;9178;51.120;6.192;2023-05-29T12:03:07;6.63;;;2.20;;
18102;SDS011;9178;51.120;6.192;2023-05-29T12:05:43;6.80;;;2.78;;
18102;SDS011;9178;51.120;6.192;2023-05-29T12:08:15;5.75;;;2.13;;
18102;SDS011;9178;51.120;6.192;2023-05-29T12:10:48;13.38;;;2.35;;
18102;SDS011;9178;51.120;6.192;2023-05-29T12:13:18;6.60;;;2.65;;
18102;SDS011;9178;51.120;6.192;2023-05-29T12:15:47;6.40;;;2.10;;
18102;SDS011;9178;51.120;6.192;2023-05-29T12:18:16;5.93;;;2.30;;
18102;SDS011;9178;51.120;6.192;2023-05-29T12:20:44;6.60;;;2.53;;
18102;SDS011;9178;51.120;6.192;2023-05-29T12:23:12;8.05;;;2.40;;
18102;SDS011;9178;51.120;6.192;2023-05-29T12:25:47;6.22;;;2.20;;
18102;SDS011;9178;51.120;6.192;2023-05-29T12:28:15;7.40;;;2.60;;
18102;SDS011;9178;51.120;6.192;2023-05-29T12:30:44;5.18;;;2.17;;
18102;SDS011;9178;51.120;6.192;2023-05-29T12:33:24;6.10;;;1.80;;
18102;SDS011;9178;51.120;6.192;2023-05-29T12:35:54;6.45;;;2.00;;
18102;SDS011;9178;51.120;6.192;2023-05-29T12:38:30;3.97;;;1.70;;
18102;SDS011;9178;51.120;6.192;2023-05-29T12:40:57;7.63;;;2.03;;
18102;SDS011;9178;51.120;6.192;2023-05-29T12:43:24;5.38;;;2.20;;
18102;SDS011;9178;51.120;6.192;2023-05-29T12:45:54;6.25;;;2.45;;
18102;SDS011;9178;51.120;6.192;2023-05-29T12:48:28;5.13;;;2.10;;
18102;SDS011;9178;51.120;6.192;2023-05-29T12:50:55;5.28;;;2.20;;
18102;SDS011;9178;51.120;6.192;2023-05-29T12:53:27;6.18;;;2.33;;
18102;SDS011;9178;51.120;6.192;2023-05-29T12:55:56;5.72;;;2.15;;
18102;SDS011;9178;51.120;6.192;2023-05-29T12:58:23;6.32;;;2.55;;
18102;SDS011;9178;51.120;6.192;2023-05-29T13:00:52;4.32;;;1.83;;
18102;SDS011;9178;51.120;6.192;2023-05-29T13:03:21;4.47;;;1.90;;
18102;SDS011;9178;51.120;6.192;2023-05-29T13:05:50;6.53;;;2.22;;
18102;SDS011;9178;51.120;6.192;2023-05-29T13:08:21;4.15;;;2.10;;
18102;SDS011;9178;51.120;6.192;2023-05-29T13:10:49;4.15;;;2.00;;
18102;SDS011;9178;51.120;6.192;2023-05-29T13:13:16;4.80;;;1.90;;
18102;SDS011;9178;51.120;6.192;2023-05-29T13:15:43;7.57;;;2.08;;
18102;SDS011;9178;51.120;6.192;2023-05-29T13:18:13;5.22;;;1.80;;
18102;SDS011;9178;51.120;6.192;2023-05-29T13:20:40;7.75;;;1.90;;
18102;SDS011;9178;51.120;6.192;2023-05-29T13:23:08;5.68;;;2.40;;
18102;SDS011;9178;51.120;6.192;2023-05-29T13:25:35;5.35;;;2.13;;
18102;SDS011;9178;51.120;6.192;2023-05-29T13:28:06;4.68;;;2.03;;
18102;SDS011;9178;51.120;6.192;2023-05-29T13:30:35;5.30;;;2.15;;
18102;SDS011;9178;51.120;6.192;2023-05-29T13:33:02;6.78;;;2.28;;
18102;SDS011;9178;51.120;6.192;2023-05-29T13:35:30;3.83;;;2.13;;
18102;SDS011;9178;51.120;6.192;2023-05-29T13:38:01;6.43;;;2.40;;
18102;SDS011;9178;51.120;6.192;2023-05-29T13:40:30;5.63;;;2.08;;
18102;SDS011;9178;51.120;6.192;2023-05-29T13:42:58;6.47;;;2.20;;
18102;SDS011;9178;51.120;6.192;2023-05-29T13:45:26;7.28;;;2.58;;
18102;SDS011;9178;51.120;6.192;2023-05-29T13:47:54;5.90;;;2.00;;
18102;SDS011;9178;51.120;6.192;2023-05-29T13:50:21;8.25;;;2.00;;
18102;SDS011;9178;51.120;6.192;2023-05-29T13:52:48;5.47;;;2.00;;
18102;SDS011;9178;51.120;6.192;2023-05-29T13:55:15;8.38;;;2.10;;
18102;SDS011;9178;51.120;6.192;2023-05-29T13:57:43;3.97;;;1.80;;
18102;SDS011;9178;51.120;6.192;2023-05-29T14:00:10;4.47;;;1.92;;
18102;SDS011;9178;51.120;6.192;2023-05-29T14:02:41;6.05;;;2.03;;
18102;SDS011;9178;51.120;6.192;2023-05-29T14:05:09;9.73;;;2.20;;
18102;SDS011;9178;51.120;6.192;2023-05-29T14:07:38;5.38;;;1.80;;
18102;SDS011;9178;51.120;6.192;2023-05-29T14:10:07;5.85;;;2.00;;
18102;SDS011;9178;51.120;6.192;2023-05-29T14:12:36;6.85;;;2.28;;
18102;SDS011;9178;51.120;6.192;2023-05-29T14:15:04;4.72;;;2.35;;
18102;SDS011;9178;51.120;6.192;2023-05-29T14:17:32;8.48;;;2.20;;
18102;SDS011;9178;51.120;6.192;2023-05-29T14:20:02;5.75;;;1.90;;
18102;SDS011;9178;51.120;6.192;2023-05-29T14:22:33;3.90;;;1.80;;
18102;SDS011;9178;51.120;6.192;2023-05-29T14:25:02;5.72;;;2.03;;
18102;SDS011;9178;51.120;6.192;2023-05-29T14:27:39;5.13;;;1.70;;
18102;SDS011;9178;51.120;6.192;2023-05-29T14:30:31;3.63;;;2.00;;
18102;SDS011;9178;51.120;6.192;2023-05-29T14:32:59;3.53;;;1.80;;
18102;SDS011;9178;51.120;6.192;2023-05-29T14:35:35;6.97;;;2.15;;
18102;SDS011;9178;51.120;6.192;2023-05-29T14:38:02;5.72;;;2.25;;
18102;SDS011;9178;51.120;6.192;2023-05-29T14:40:30;8.07;;;2.35;;
18102;SDS011;9178;51.120;6.192;2023-05-29T14:42:59;3.92;;;2.17;;
18102;SDS011;9178;51.120;6.192;2023-05-29T14:45:26;4.38;;;1.98;;
18102;SDS011;9178;51.120;6.192;2023-05-29T14:47:54;9.88;;;2.35;;
18102;SDS011;9178;51.120;6.192;2023-05-29T14:50:22;4.78;;;1.73;;
18102;SDS011;9178;51.120;6.192;2023-05-29T14:52:51;7.13;;;2.28;;
18102;SDS011;9178;51.120;6.192;2023-05-29T14:55:19;6.20;;;1.98;;
18102;SDS011;9178;51.120;6.192;2023-05-29T14:57:46;7.45;;;2.50;;
18102;SDS011;9178;51.120;6.192;2023-05-29T15:00:13;6.13;;;1.92;;
18102;SDS011;9178;51.120;6.192;2023-05-29T15:02:41;6.40;;;2.33;;
18102;SDS011;9178;51.120;6.192;2023-05-29T15:05:08;4.25;;;2.08;;
18102;SDS011;9178;51.120;6.192;2023-05-29T15:07:35;4.65;;;1.92;;
18102;SDS011;9178;51.120;6.192;2023-05-29T15:10:04;5.25;;;2.10;;
18102;SDS011;9178;51.120;6.192;2023-05-29T15:12:40;5.50;;;2.30;;
18102;SDS011;9178;51.120;6.192;2023-05-29T15:15:08;5.50;;;2.00;;
18102;SDS011;9178;51.120;6.192;2023-05-29T15:17:35;5.78;;;2.33;;
18102;SDS011;9178;51.120;6.192;2023-05-29T15:20:05;5.00;;;2.10;;
18102;SDS011;9178;51.120;6.192;2023-05-29T15:22:32;4.75;;;2.08;;
18102;SDS011;9178;51.120;6.192;2023-05-29T15:25:01;6.20;;;2.20;;
18102;SDS011;9178;51.120;6.192;2023-05-29T15:27:37;4.95;;;1.98;;